sensor_id;sensor_type;location;lat;lon;timestamp;P1;durP1;ratioP1;P2;durP2;ratioP2
66626;SDS011;53498;50.422;14.912;2022-10-01T00:01:05;28.73;;;14.95;;
66626;SDS011;53498;50.422;14.912;2022-10-01T00:03:39;29.60;;;14.45;;
66626;SDS011;53498;50.422;14.912;2022-10-01T00:08:42;20.55;;;13.35;;
66626;SDS011;53498;50.422;14.912;2022-10-01T00:11:16;24.80;;;13.63;;
66626;SDS011;53498;50.422;14.912;2022-10-01T00:13:43;22.85;;;13.30;;
66626;SDS011;53498;50.422;14.912;2022-10-01T00:16:10;24.50;;;13.05;;
66626;SDS011;53498;50.422;14.912;2022-10-01T00:18:39;19.23;;;12.30;;
66626;SDS011;53498;50.422;14.912;2022-10-01T00:21:07;23.98;;;13.23;;
66626;SDS011;53498;50.422;14.912;2022-10-01T00:23:35;18.65;;;11.82;;
66626;SDS011;53498;50.422;14.912;2022-10-01T00:26:09;23.25;;;14.15;;
66626;SDS011;53498;50.422;14.912;2022-10-01T00:28:38;22.15;;;12.30;;
66626;SDS011;53498;50.422;14.912;2022-10-01T00:31:05;23.77;;;13.32;;
66626;SDS011;53498;50.422;14.912;2022-10-01T00:33:34;22.23;;;14.02;;
66626;SDS011;53498;50.422;14.912;2022-10-01T00:36:04;23.75;;;12.57;;
66626;SDS011;53498;50.422;14.912;2022-10-01T00:38:31;19.20;;;12.10;;
66626;SDS011;53498;50.422;14.912;2022-10-01T00:40:58;21.13;;;12.43;;
66626;SDS011;53498;50.422;14.912;2022-10-01T00:43:26;21.40;;;12.13;;
66626;SDS011;53498;50.422;14.912;2022-10-01T00:45:54;20.05;;;12.82;;
66626;SDS011;53498;50.422;14.912;2022-10-01T00:48:23;21.55;;;12.23;;
66626;SDS011;53498;50.422;14.912;2022-10-01T00:50:52;21.98;;;12.55;;
66626;SDS011;53498;50.422;14.912;2022-10-01T00:53:18;18.63;;;11.40;;
66626;SDS011;53498;50.422;14.912;2022-10-01T00:55:50;17.70;;;11.75;;
66626;SDS011;53498;50.422;14.912;2022-10-01T00:58:19;23.58;;;12.18;;
66626;SDS011;53498;50.422;14.912;2022-10-01T01:00:47;18.95;;;11.75;;
66626;SDS011;53498;50.422;14.912;2022-10-01T01:03:15;19.38;;;12.10;;
66626;SDS011;53498;50.422;14.912;2022-10-01T01:05:41;18.20;;;11.57;;
66626;SDS011;53498;50.422;14.912;2022-10-01T01:08:08;20.85;;;13.15;;
66626;SDS011;53498;50.422;14.912;2022-10-01T01:13:47;17.95;;;10.73;;
66626;SDS011;53498;50.422;14.912;2022-10-01T01:16:35;22.90;;;12.23;;
66626;SDS011;53498;50.422;14.912;2022-10-01T01:19:14;23.05;;;13.20;;
66626;SDS011;53498;50.422;14.912;2022-10-01T01:21:52;19.95;;;12.30;;
66626;SDS011;53498;50.422;14.912;2022-10-01T01:30:07;20.70;;;12.57;;
66626;SDS011;53498;50.422;14.912;2022-10-01T01:32:36;23.27;;;13.38;;
66626;SDS011;53498;50.422;14.912;2022-10-01T01:35:15;25.42;;;13.88;;
66626;SDS011;53498;50.422;14.912;2022-10-01T01:38:06;19.90;;;12.55;;
66626;SDS011;53498;50.422;14.912;2022-10-01T01:40:38;20.17;;;12.90;;
66626;SDS011;53498;50.422;14.912;2022-10-01T01:43:10;19.52;;;11.80;;
66626;SDS011;53498;50.422;14.912;2022-10-01T01:48:07;17.85;;;11.45;;
66626;SDS011;53498;50.422;14.912;2022-10-01T01:50:42;23.83;;;14.02;;
66626;SDS011;53498;50.422;14.912;2022-10-01T01:53:16;18.40;;;12.05;;
66626;SDS011;53498;50.422;14.912;2022-10-01T01:55:42;20.02;;;11.93;;
66626;SDS011;53498;50.422;14.912;2022-10-01T01:58:11;19.90;;;12.50;;
66626;SDS011;53498;50.422;14.912;2022-10-01T02:00:37;21.25;;;12.38;;
66626;SDS011;53498;50.422;14.912;2022-10-01T02:03:03;23.50;;;12.48;;
66626;SDS011;53498;50.422;14.912;2022-10-01T02:05:33;21.98;;;12.85;;
66626;SDS011;53498;50.422;14.912;2022-10-01T02:10:45;20.45;;;11.23;;
66626;SDS011;53498;50.422;14.912;2022-10-01T02:26:44;16.50;;;10.65;;
66626;SDS011;53498;50.422;14.912;2022-10-01T02:29:15;20.08;;;11.63;;
66626;SDS011;53498;50.422;14.912;2022-10-01T02:31:44;20.15;;;10.27;;
66626;SDS011;53498;50.422;14.912;2022-10-01T02:34:12;22.27;;;12.10;;
66626;SDS011;53498;50.422;14.912;2022-10-01T02:36:42;21.23;;;12.35;;
66626;SDS011;53498;50.422;14.912;2022-10-01T02:39:10;19.13;;;11.40;;
66626;SDS011;53498;50.422;14.912;2022-10-01T02:41:39;19.65;;;11.18;;
66626;SDS011;53498;50.422;14.912;2022-10-01T02:44:09;20.73;;;11.57;;
66626;SDS011;53498;50.422;14.912;2022-10-01T02:46:42;17.67;;;11.05;;
66626;SDS011;53498;50.422;14.912;2022-10-01T02:49:36;22.60;;;12.75;;
66626;SDS011;53498;50.422;14.912;2022-10-01T02:52:13;25.02;;;12.98;;
66626;SDS011;53498;50.422;14.912;2022-10-01T02:57:35;20.17;;;12.25;;
66626;SDS011;53498;50.422;14.912;2022-10-01T03:00:05;16.40;;;11.32;;
66626;SDS011;53498;50.422;14.912;2022-10-01T03:02:34;16.80;;;10.93;;
66626;SDS011;53498;50.422;14.912;2022-10-01T03:04:59;18.20;;;11.45;;
66626;SDS011;53498;50.422;14.912;2022-10-01T03:07:27;22.20;;;12.63;;
66626;SDS011;53498;50.422;14.912;2022-10-01T03:09:54;18.42;;;10.50;;
66626;SDS011;53498;50.422;14.912;2022-10-01T03:12:20;19.63;;;11.38;;
66626;SDS011;53498;50.422;14.912;2022-10-01T03:14:47;19.92;;;10.75;;
66626;SDS011;53498;50.422;14.912;2022-10-01T03:17:14;19.45;;;11.80;;
66626;SDS011;53498;50.422;14.912;2022-10-01T03:19:40;23.23;;;12.38;;
66626;SDS011;53498;50.422;14.912;2022-10-01T03:22:07;16.00;;;11.57;;
66626;SDS011;53498;50.422;14.912;2022-10-01T03:24:35;18.98;;;11.10;;
66626;SDS011;53498;50.422;14.912;2022-10-01T03:27:01;19.48;;;10.55;;
66626;SDS011;53498;50.422;14.912;2022-10-01T03:29:27;20.02;;;11.88;;
66626;SDS011;53498;50.422;14.912;2022-10-01T03:31:53;21.20;;;12.35;;
66626;SDS011;53498;50.422;14.912;2022-10-01T03:34:19;17.75;;;11.18;;
66626;SDS011;53498;50.422;14.912;2022-10-01T03:36:46;20.70;;;11.85;;
66626;SDS011;53498;50.422;14.912;2022-10-01T03:39:12;23.52;;;12.35;;
66626;SDS011;53498;50.422;14.912;2022-10-01T03:41:41;20.65;;;10.98;;
66626;SDS011;53498;50.422;14.912;2022-10-01T03:44:07;23.00;;;10.98;;
66626;SDS011;53498;50.422;14.912;2022-10-01T03:46:33;23.77;;;11.32;;
66626;SDS011;53498;50.422;14.912;2022-10-01T03:49:01;20.35;;;11.35;;
66626;SDS011;53498;50.422;14.912;2022-10-01T03:51:28;15.13;;;9.95;;
66626;SDS011;53498;50.422;14.912;2022-10-01T03:53:55;19.48;;;11.25;;
66626;SDS011;53498;50.422;14.912;2022-10-01T03:56:22;23.50;;;12.50;;
66626;SDS011;53498;50.422;14.912;2022-10-01T03:58:48;21.25;;;11.63;;
66626;SDS011;53498;50.422;14.912;2022-10-01T04:01:14;20.45;;;11.82;;
66626;SDS011;53498;50.422;14.912;2022-10-01T04:03:41;20.48;;;12.50;;
66626;SDS011;53498;50.422;14.912;2022-10-01T04:06:08;21.40;;;11.80;;
66626;SDS011;53498;50.422;14.912;2022-10-01T04:08:34;30.33;;;27.05;;
66626;SDS011;53498;50.422;14.912;2022-10-01T04:11:00;20.90;;;12.27;;
66626;SDS011;53498;50.422;14.912;2022-10-01T04:13:26;48.53;;;45.03;;
66626;SDS011;53498;50.422;14.912;2022-10-01T04:15:54;21.15;;;11.90;;
66626;SDS011;53498;50.422;14.912;2022-10-01T04:18:20;20.27;;;11.77;;
66626;SDS011;53498;50.422;14.912;2022-10-01T04:20:46;19.40;;;11.32;;
66626;SDS011;53498;50.422;14.912;2022-10-01T04:23:12;18.48;;;11.10;;
66626;SDS011;53498;50.422;14.912;2022-10-01T04:25:38;17.75;;;11.35;;
66626;SDS011;53498;50.422;14.912;2022-10-01T04:28:05;22.85;;;10.80;;
66626;SDS011;53498;50.422;14.912;2022-10-01T04:30:36;16.05;;;11.18;;
66626;SDS011;53498;50.422;14.912;2022-10-01T04:33:04;19.55;;;11.15;;
66626;SDS011;53498;50.422;14.912;2022-10-01T04:35:32;20.75;;;12.50;;
66626;SDS011;53498;50.422;14.912;2022-10-01T04:37:59;21.35;;;11.25;;
66626;SDS011;53498;50.422;14.912;2022-10-01T04:40:31;20.45;;;11.70;;
66626;SDS011;53498;50.422;14.912;2022-10-01T04:43:00;22.48;;;12.00;;
66626;SDS011;53498;50.422;14.912;2022-10-01T04:45:29;16.65;;;11.30;;
66626;SDS011;53498;50.422;14.912;2022-10-01T04:47:56;19.50;;;10.02;;
66626;SDS011;53498;50.422;14.912;2022-10-01T04:50:22;23.40;;;13.18;;
66626;SDS011;53498;50.422;14.912;2022-10-01T04:52:50;19.95;;;11.05;;
66626;SDS011;53498;50.422;14.912;2022-10-01T04:55:17;17.10;;;10.13;;
66626;SDS011;53498;50.422;14.912;2022-10-01T04:57:43;19.52;;;11.50;;
66626;SDS011;53498;50.422;14.912;2022-10-01T05:00:10;22.25;;;12.23;;
66626;SDS011;53498;50.422;14.912;2022-10-01T05:02:38;16.65;;;11.32;;
66626;SDS011;53498;50.422;14.912;2022-10-01T05:05:05;19.63;;;11.93;;
66626;SDS011;53498;50.422;14.912;2022-10-01T05:07:32;19.33;;;11.48;;
66626;SDS011;53498;50.422;14.912;2022-10-01T05:09:59;18.50;;;11.00;;
66626;SDS011;53498;50.422;14.912;2022-10-01T05:12:25;16.70;;;10.85;;
66626;SDS011;53498;50.422;14.912;2022-10-01T05:14:52;18.35;;;11.80;;
66626;SDS011;53498;50.422;14.912;2022-10-01T05:17:19;19.60;;;11.82;;
66626;SDS011;53498;50.422;14.912;2022-10-01T05:19:45;17.50;;;11.15;;
66626;SDS011;53498;50.422;14.912;2022-10-01T05:22:12;18.55;;;10.90;;
66626;SDS011;53498;50.422;14.912;2022-10-01T05:24:38;20.40;;;11.65;;
66626;SDS011;53498;50.422;14.912;2022-10-01T05:27:04;17.42;;;11.18;;
66626;SDS011;53498;50.422;14.912;2022-10-01T05:29:34;16.25;;;10.20;;
66626;SDS011;53498;50.422;14.912;2022-10-01T05:32:01;18.05;;;11.15;;
66626;SDS011;53498;50.422;14.912;2022-10-01T05:34:26;21.38;;;12.48;;
66626;SDS011;53498;50.422;14.912;2022-10-01T05:36:53;16.77;;;10.95;;
66626;SDS011;53498;50.422;14.912;2022-10-01T05:39:22;19.35;;;11.20;;
66626;SDS011;53498;50.422;14.912;2022-10-01T05:41:47;22.00;;;11.50;;
66626;SDS011;53498;50.422;14.912;2022-10-01T05:44:13;23.67;;;13.10;;
66626;SDS011;53498;50.422;14.912;2022-10-01T05:46:39;21.40;;;11.52;;
66626;SDS011;53498;50.422;14.912;2022-10-01T05:49:08;20.50;;;12.30;;
66626;SDS011;53498;50.422;14.912;2022-10-01T05:51:35;22.45;;;11.32;;
66626;SDS011;53498;50.422;14.912;2022-10-01T05:54:00;17.85;;;11.55;;
66626;SDS011;53498;50.422;14.912;2022-10-01T05:56:28;18.50;;;11.43;;
66626;SDS011;53498;50.422;14.912;2022-10-01T05:58:55;20.67;;;11.25;;
66626;SDS011;53498;50.422;14.912;2022-10-01T06:01:21;19.58;;;11.93;;
66626;SDS011;53498;50.422;14.912;2022-10-01T06:03:52;23.92;;;11.35;;
66626;SDS011;53498;50.422;14.912;2022-10-01T06:06:19;23.45;;;12.18;;
66626;SDS011;53498;50.422;14.912;2022-10-01T06:08:46;17.08;;;10.25;;
66626;SDS011;53498;50.422;14.912;2022-10-01T06:11:12;16.13;;;11.23;;
66626;SDS011;53498;50.422;14.912;2022-10-01T06:13:37;17.00;;;11.05;;
66626;SDS011;53498;50.422;14.912;2022-10-01T06:16:04;17.90;;;11.32;;
66626;SDS011;53498;50.422;14.912;2022-10-01T06:18:34;22.70;;;12.00;;
66626;SDS011;53498;50.422;14.912;2022-10-01T06:21:00;20.83;;;12.32;;
66626;SDS011;53498;50.422;14.912;2022-10-01T06:23:25;19.95;;;11.90;;
66626;SDS011;53498;50.422;14.912;2022-10-01T06:25:51;18.70;;;11.60;;
66626;SDS011;53498;50.422;14.912;2022-10-01T06:28:16;19.73;;;10.98;;
66626;SDS011;53498;50.422;14.912;2022-10-01T06:30:43;19.60;;;10.52;;
66626;SDS011;53498;50.422;14.912;2022-10-01T06:33:13;18.85;;;11.70;;
66626;SDS011;53498;50.422;14.912;2022-10-01T06:35:41;22.33;;;13.07;;
66626;SDS011;53498;50.422;14.912;2022-10-01T06:38:08;18.77;;;12.52;;
66626;SDS011;53498;50.422;14.912;2022-10-01T06:40:35;19.17;;;11.00;;
66626;SDS011;53498;50.422;14.912;2022-10-01T06:43:02;19.08;;;12.07;;
66626;SDS011;53498;50.422;14.912;2022-10-01T06:45:28;18.10;;;10.88;;
66626;SDS011;53498;50.422;14.912;2022-10-01T06:47:58;22.63;;;12.35;;
66626;SDS011;53498;50.422;14.912;2022-10-01T06:50:28;20.50;;;12.68;;
66626;SDS011;53498;50.422;14.912;2022-10-01T06:52:55;23.42;;;12.82;;
66626;SDS011;53498;50.422;14.912;2022-10-01T06:55:26;21.45;;;12.63;;
66626;SDS011;53498;50.422;14.912;2022-10-01T06:58:03;23.67;;;12.93;;
66626;SDS011;53498;50.422;14.912;2022-10-01T07:00:34;22.33;;;13.48;;
66626;SDS011;53498;50.422;14.912;2022-10-01T07:03:06;22.60;;;12.32;;
66626;SDS011;53498;50.422;14.912;2022-10-01T07:05:35;25.02;;;13.60;;
66626;SDS011;53498;50.422;14.912;2022-10-01T07:08:08;18.77;;;12.90;;
66626;SDS011;53498;50.422;14.912;2022-10-01T07:10:34;20.30;;;12.77;;
66626;SDS011;53498;50.422;14.912;2022-10-01T07:13:07;22.70;;;12.20;;
66626;SDS011;53498;50.422;14.912;2022-10-01T07:15:37;20.42;;;12.45;;
66626;SDS011;53498;50.422;14.912;2022-10-01T07:18:03;23.40;;;13.05;;
66626;SDS011;53498;50.422;14.912;2022-10-01T07:20:29;21.98;;;13.13;;
66626;SDS011;53498;50.422;14.912;2022-10-01T07:22:59;22.08;;;11.93;;
66626;SDS011;53498;50.422;14.912;2022-10-01T07:25:26;18.25;;;11.35;;
66626;SDS011;53498;50.422;14.912;2022-10-01T07:27:53;23.38;;;12.15;;
66626;SDS011;53498;50.422;14.912;2022-10-01T07:30:24;20.38;;;12.60;;
66626;SDS011;53498;50.422;14.912;2022-10-01T07:32:50;21.80;;;13.65;;
66626;SDS011;53498;50.422;14.912;2022-10-01T07:35:16;19.77;;;12.82;;
66626;SDS011;53498;50.422;14.912;2022-10-01T07:37:45;18.65;;;12.05;;
66626;SDS011;53498;50.422;14.912;2022-10-01T07:40:15;21.92;;;12.90;;
66626;SDS011;53498;50.422;14.912;2022-10-01T07:42:41;18.55;;;11.82;;
66626;SDS011;53498;50.422;14.912;2022-10-01T07:45:07;22.52;;;12.70;;
66626;SDS011;53498;50.422;14.912;2022-10-01T07:47:33;25.83;;;13.07;;
66626;SDS011;53498;50.422;14.912;2022-10-01T07:49:59;24.13;;;12.30;;
66626;SDS011;53498;50.422;14.912;2022-10-01T07:52:25;22.05;;;13.50;;
66626;SDS011;53498;50.422;14.912;2022-10-01T07:54:50;19.38;;;12.73;;
66626;SDS011;53498;50.422;14.912;2022-10-01T07:57:16;22.77;;;13.38;;
66626;SDS011;53498;50.422;14.912;2022-10-01T07:59:45;21.52;;;12.45;;
66626;SDS011;53498;50.422;14.912;2022-10-01T08:02:14;19.92;;;11.25;;
66626;SDS011;53498;50.422;14.912;2022-10-01T08:04:40;17.48;;;11.95;;
66626;SDS011;53498;50.422;14.912;2022-10-01T08:07:25;16.75;;;11.48;;
66626;SDS011;53498;50.422;14.912;2022-10-01T08:09:51;24.52;;;13.18;;
66626;SDS011;53498;50.422;14.912;2022-10-01T08:12:23;20.15;;;11.82;;
66626;SDS011;53498;50.422;14.912;2022-10-01T08:14:54;19.25;;;10.90;;
66626;SDS011;53498;50.422;14.912;2022-10-01T08:17:20;19.15;;;11.27;;
66626;SDS011;53498;50.422;14.912;2022-10-01T08:19:46;19.00;;;10.80;;
66626;SDS011;53498;50.422;14.912;2022-10-01T08:22:11;19.45;;;12.15;;
66626;SDS011;53498;50.422;14.912;2022-10-01T08:24:37;17.77;;;11.15;;
66626;SDS011;53498;50.422;14.912;2022-10-01T08:27:03;14.85;;;10.25;;
66626;SDS011;53498;50.422;14.912;2022-10-01T08:29:29;18.23;;;10.07;;
66626;SDS011;53498;50.422;14.912;2022-10-01T08:31:58;17.35;;;10.38;;
66626;SDS011;53498;50.422;14.912;2022-10-01T08:34:24;14.15;;;9.70;;
66626;SDS011;53498;50.422;14.912;2022-10-01T08:36:50;17.40;;;10.35;;
66626;SDS011;53498;50.422;14.912;2022-10-01T08:39:16;18.70;;;10.82;;
66626;SDS011;53498;50.422;14.912;2022-10-01T08:44:21;16.70;;;9.85;;
66626;SDS011;53498;50.422;14.912;2022-10-01T08:46:53;15.70;;;8.65;;
66626;SDS011;53498;50.422;14.912;2022-10-01T08:49:35;13.65;;;8.55;;
66626;SDS011;53498;50.422;14.912;2022-10-01T08:52:14;15.65;;;8.90;;
66626;SDS011;53498;50.422;14.912;2022-10-01T08:54:55;12.60;;;8.13;;
66626;SDS011;53498;50.422;14.912;2022-10-01T08:57:26;13.70;;;8.40;;
66626;SDS011;53498;50.422;14.912;2022-10-01T08:59:58;12.73;;;8.05;;
66626;SDS011;53498;50.422;14.912;2022-10-01T09:02:32;11.95;;;8.40;;
66626;SDS011;53498;50.422;14.912;2022-10-01T09:13:21;12.45;;;7.70;;
66626;SDS011;53498;50.422;14.912;2022-10-01T09:21:18;14.00;;;7.63;;
66626;SDS011;53498;50.422;14.912;2022-10-01T09:26:29;8.82;;;6.50;;
66626;SDS011;53498;50.422;14.912;2022-10-01T09:28:57;14.38;;;7.57;;
66626;SDS011;53498;50.422;14.912;2022-10-01T09:31:39;11.65;;;7.20;;
66626;SDS011;53498;50.422;14.912;2022-10-01T09:36:50;11.10;;;7.00;;
66626;SDS011;53498;50.422;14.912;2022-10-01T09:39:37;16.30;;;12.85;;
66626;SDS011;53498;50.422;14.912;2022-10-01T09:42:16;14.43;;;6.28;;
66626;SDS011;53498;50.422;14.912;2022-10-01T09:44:42;11.18;;;6.55;;
66626;SDS011;53498;50.422;14.912;2022-10-01T09:47:13;9.10;;;5.80;;
66626;SDS011;53498;50.422;14.912;2022-10-01T09:49:42;8.75;;;5.95;;
66626;SDS011;53498;50.422;14.912;2022-10-01T09:52:09;11.35;;;5.57;;
66626;SDS011;53498;50.422;14.912;2022-10-01T10:00:34;9.85;;;5.28;;
66626;SDS011;53498;50.422;14.912;2022-10-01T10:03:02;11.13;;;6.15;;
66626;SDS011;53498;50.422;14.912;2022-10-01T10:05:43;10.05;;;5.75;;
66626;SDS011;53498;50.422;14.912;2022-10-01T10:08:12;10.27;;;5.83;;
66626;SDS011;53498;50.422;14.912;2022-10-01T10:10:47;9.75;;;4.82;;
66626;SDS011;53498;50.422;14.912;2022-10-01T10:13:27;7.88;;;5.10;;
66626;SDS011;53498;50.422;14.912;2022-10-01T10:16:00;8.52;;;5.20;;
66626;SDS011;53498;50.422;14.912;2022-10-01T10:18:35;6.40;;;4.28;;
66626;SDS011;53498;50.422;14.912;2022-10-01T10:21:04;8.02;;;4.82;;
66626;SDS011;53498;50.422;14.912;2022-10-01T10:23:45;7.13;;;4.38;;
66626;SDS011;53498;50.422;14.912;2022-10-01T10:26:29;7.40;;;3.88;;
66626;SDS011;53498;50.422;14.912;2022-10-01T10:29:00;8.18;;;4.47;;
66626;SDS011;53498;50.422;14.912;2022-10-01T10:31:28;10.70;;;3.80;;
66626;SDS011;53498;50.422;14.912;2022-10-01T10:34:29;8.57;;;4.28;;
66626;SDS011;53498;50.422;14.912;2022-10-01T10:36:59;5.35;;;3.63;;
66626;SDS011;53498;50.422;14.912;2022-10-01T10:39:31;8.23;;;3.53;;
66626;SDS011;53498;50.422;14.912;2022-10-01T10:42:00;11.07;;;3.88;;
66626;SDS011;53498;50.422;14.912;2022-10-01T10:44:29;6.03;;;3.55;;
66626;SDS011;53498;50.422;14.912;2022-10-01T10:47:02;5.45;;;3.10;;
66626;SDS011;53498;50.422;14.912;2022-10-01T10:49:32;5.28;;;3.50;;
66626;SDS011;53498;50.422;14.912;2022-10-01T10:52:16;5.00;;;2.97;;
66626;SDS011;53498;50.422;14.912;2022-10-01T10:54:49;6.40;;;3.10;;
66626;SDS011;53498;50.422;14.912;2022-10-01T10:57:24;4.68;;;3.00;;
66626;SDS011;53498;50.422;14.912;2022-10-01T10:59:58;5.60;;;2.90;;
66626;SDS011;53498;50.422;14.912;2022-10-01T11:02:25;5.88;;;2.80;;
66626;SDS011;53498;50.422;14.912;2022-10-01T11:04:54;4.82;;;3.10;;
66626;SDS011;53498;50.422;14.912;2022-10-01T11:07:22;6.40;;;3.17;;
66626;SDS011;53498;50.422;14.912;2022-10-01T11:12:39;4.10;;;3.13;;
66626;SDS011;53498;50.422;14.912;2022-10-01T11:17:59;6.55;;;3.42;;
66626;SDS011;53498;50.422;14.912;2022-10-01T11:23:41;6.93;;;3.50;;
66626;SDS011;53498;50.422;14.912;2022-10-01T11:26:34;7.43;;;3.85;;
66626;SDS011;53498;50.422;14.912;2022-10-01T11:31:46;6.13;;;3.53;;
66626;SDS011;53498;50.422;14.912;2022-10-01T11:37:25;6.75;;;3.92;;
66626;SDS011;53498;50.422;14.912;2022-10-01T11:40:01;5.78;;;3.13;;
66626;SDS011;53498;50.422;14.912;2022-10-01T11:42:37;6.05;;;3.47;;
66626;SDS011;53498;50.422;14.912;2022-10-01T11:45:09;6.65;;;3.20;;
66626;SDS011;53498;50.422;14.912;2022-10-01T11:47:50;3.00;;;1.83;;
66626;SDS011;53498;50.422;14.912;2022-10-01T11:50:19;2.37;;;1.93;;
66626;SDS011;53498;50.422;14.912;2022-10-01T11:55:30;2.50;;;1.85;;
66626;SDS011;53498;50.422;14.912;2022-10-01T12:01:29;4.70;;;2.00;;
66626;SDS011;53498;50.422;14.912;2022-10-01T12:04:01;2.30;;;1.85;;
66626;SDS011;53498;50.422;14.912;2022-10-01T12:06:32;3.22;;;1.95;;
66626;SDS011;53498;50.422;14.912;2022-10-01T12:11:42;3.42;;;1.80;;
66626;SDS011;53498;50.422;14.912;2022-10-01T12:14:19;3.53;;;2.20;;
66626;SDS011;53498;50.422;14.912;2022-10-01T12:16:52;4.35;;;1.88;;
66626;SDS011;53498;50.422;14.912;2022-10-01T12:19:31;5.10;;;1.77;;
66626;SDS011;53498;50.422;14.912;2022-10-01T12:22:14;5.10;;;2.45;;
66626;SDS011;53498;50.422;14.912;2022-10-01T12:38:50;2.83;;;1.63;;
66626;SDS011;53498;50.422;14.912;2022-10-01T13:06:52;4.00;;;1.80;;
66626;SDS011;53498;50.422;14.912;2022-10-01T13:14:40;4.85;;;2.75;;
66626;SDS011;53498;50.422;14.912;2022-10-01T13:17:23;6.13;;;2.72;;
66626;SDS011;53498;50.422;14.912;2022-10-01T13:19:58;6.15;;;2.75;;
66626;SDS011;53498;50.422;14.912;2022-10-01T13:22:40;3.97;;;2.42;;
66626;SDS011;53498;50.422;14.912;2022-10-01T13:28:19;4.43;;;2.85;;
66626;SDS011;53498;50.422;14.912;2022-10-01T13:30:58;3.88;;;2.60;;
66626;SDS011;53498;50.422;14.912;2022-10-01T13:33:26;6.47;;;3.30;;
66626;SDS011;53498;50.422;14.912;2022-10-01T13:35:58;7.03;;;3.67;;
66626;SDS011;53498;50.422;14.912;2022-10-01T13:41:04;6.43;;;3.53;;
66626;SDS011;53498;50.422;14.912;2022-10-01T13:43:44;5.25;;;3.35;;
66626;SDS011;53498;50.422;14.912;2022-10-01T13:46:33;5.03;;;3.53;;
66626;SDS011;53498;50.422;14.912;2022-10-01T13:49:21;7.15;;;3.90;;
66626;SDS011;53498;50.422;14.912;2022-10-01T13:51:49;6.45;;;3.45;;
66626;SDS011;53498;50.422;14.912;2022-10-01T13:54:38;5.78;;;3.65;;
66626;SDS011;53498;50.422;14.912;2022-10-01T13:57:08;6.20;;;3.78;;
66626;SDS011;53498;50.422;14.912;2022-10-01T13:59:46;7.50;;;4.45;;
66626;SDS011;53498;50.422;14.912;2022-10-01T14:02:36;7.03;;;3.45;;
66626;SDS011;53498;50.422;14.912;2022-10-01T14:07:41;6.15;;;3.80;;
66626;SDS011;53498;50.422;14.912;2022-10-01T14:10:11;6.45;;;4.05;;
66626;SDS011;53498;50.422;14.912;2022-10-01T14:12:40;4.88;;;3.58;;
66626;SDS011;53498;50.422;14.912;2022-10-01T14:15:31;8.30;;;4.20;;
66626;SDS011;53498;50.422;14.912;2022-10-01T14:18:32;8.10;;;3.92;;
66626;SDS011;53498;50.422;14.912;2022-10-01T14:26:15;8.82;;;4.60;;
66626;SDS011;53498;50.422;14.912;2022-10-01T14:31:46;6.18;;;3.88;;
66626;SDS011;53498;50.422;14.912;2022-10-01T14:36:58;7.35;;;4.68;;
66626;SDS011;53498;50.422;14.912;2022-10-01T14:39:25;7.70;;;5.07;;
66626;SDS011;53498;50.422;14.912;2022-10-01T14:41:53;10.48;;;4.95;;
66626;SDS011;53498;50.422;14.912;2022-10-01T14:44:25;7.70;;;4.57;;
66626;SDS011;53498;50.422;14.912;2022-10-01T14:46:53;10.57;;;5.13;;
66626;SDS011;53498;50.422;14.912;2022-10-01T14:52:00;8.30;;;4.85;;
66626;SDS011;53498;50.422;14.912;2022-10-01T14:54:28;8.57;;;5.03;;
66626;SDS011;53498;50.422;14.912;2022-10-01T14:57:01;7.53;;;5.47;;
66626;SDS011;53498;50.422;14.912;2022-10-01T14:59:35;7.05;;;4.80;;
66626;SDS011;53498;50.422;14.912;2022-10-01T15:02:16;7.07;;;4.13;;
66626;SDS011;53498;50.422;14.912;2022-10-01T15:04:44;9.90;;;5.22;;
66626;SDS011;53498;50.422;14.912;2022-10-01T15:07:12;10.27;;;6.13;;
66626;SDS011;53498;50.422;14.912;2022-10-01T15:09:38;10.07;;;5.63;;
66626;SDS011;53498;50.422;14.912;2022-10-01T15:12:04;8.73;;;5.20;;
66626;SDS011;53498;50.422;14.912;2022-10-01T15:14:30;11.68;;;5.75;;
66626;SDS011;53498;50.422;14.912;2022-10-01T15:17:02;10.73;;;4.85;;
66626;SDS011;53498;50.422;14.912;2022-10-01T15:19:28;8.77;;;4.90;;
66626;SDS011;53498;50.422;14.912;2022-10-01T15:21:58;8.73;;;5.45;;
66626;SDS011;53498;50.422;14.912;2022-10-01T15:24:44;6.53;;;4.65;;
66626;SDS011;53498;50.422;14.912;2022-10-01T15:27:13;5.15;;;4.00;;
66626;SDS011;53498;50.422;14.912;2022-10-01T15:29:43;6.03;;;4.55;;
66626;SDS011;53498;50.422;14.912;2022-10-01T15:32:13;9.55;;;4.97;;
66626;SDS011;53498;50.422;14.912;2022-10-01T15:34:43;8.00;;;4.50;;
66626;SDS011;53498;50.422;14.912;2022-10-01T15:37:16;10.00;;;5.10;;
66626;SDS011;53498;50.422;14.912;2022-10-01T15:39:58;8.15;;;5.07;;
66626;SDS011;53498;50.422;14.912;2022-10-01T15:47:31;8.93;;;5.55;;
66626;SDS011;53498;50.422;14.912;2022-10-01T15:50:02;7.30;;;5.20;;
66626;SDS011;53498;50.422;14.912;2022-10-01T15:57:56;8.48;;;4.38;;
66626;SDS011;53498;50.422;14.912;2022-10-01T16:00:27;7.38;;;4.15;;
66626;SDS011;53498;50.422;14.912;2022-10-01T16:02:56;9.13;;;3.78;;
66626;SDS011;53498;50.422;14.912;2022-10-01T16:05:27;9.23;;;4.35;;
66626;SDS011;53498;50.422;14.912;2022-10-01T16:08:02;8.30;;;4.25;;
66626;SDS011;53498;50.422;14.912;2022-10-01T16:10:30;10.50;;;4.40;;
66626;SDS011;53498;50.422;14.912;2022-10-01T16:12:58;5.07;;;3.75;;
66626;SDS011;53498;50.422;14.912;2022-10-01T16:18:00;5.03;;;3.53;;
66626;SDS011;53498;50.422;14.912;2022-10-01T16:20:37;7.07;;;4.10;;
66626;SDS011;53498;50.422;14.912;2022-10-01T16:28:52;8.10;;;4.10;;
66626;SDS011;53498;50.422;14.912;2022-10-01T16:31:38;6.05;;;4.50;;
66626;SDS011;53498;50.422;14.912;2022-10-01T16:34:14;7.45;;;4.97;;
66626;SDS011;53498;50.422;14.912;2022-10-01T16:36:42;6.57;;;4.97;;
66626;SDS011;53498;50.422;14.912;2022-10-01T16:39:08;7.25;;;3.85;;
66626;SDS011;53498;50.422;14.912;2022-10-01T16:41:36;8.60;;;4.07;;
66626;SDS011;53498;50.422;14.912;2022-10-01T16:44:02;6.18;;;3.90;;
66626;SDS011;53498;50.422;14.912;2022-10-01T16:46:31;5.90;;;3.92;;
66626;SDS011;53498;50.422;14.912;2022-10-01T16:48:57;7.40;;;4.22;;
66626;SDS011;53498;50.422;14.912;2022-10-01T16:51:23;5.45;;;3.65;;
66626;SDS011;53498;50.422;14.912;2022-10-01T16:53:48;6.50;;;3.85;;
66626;SDS011;53498;50.422;14.912;2022-10-01T16:56:15;8.18;;;4.47;;
66626;SDS011;53498;50.422;14.912;2022-10-01T16:58:41;5.55;;;4.35;;
66626;SDS011;53498;50.422;14.912;2022-10-01T17:01:12;6.75;;;4.10;;
66626;SDS011;53498;50.422;14.912;2022-10-01T17:03:39;9.98;;;4.30;;
66626;SDS011;53498;50.422;14.912;2022-10-01T17:06:05;5.18;;;4.43;;
66626;SDS011;53498;50.422;14.912;2022-10-01T17:08:31;9.80;;;4.47;;
66626;SDS011;53498;50.422;14.912;2022-10-01T17:10:58;9.82;;;4.55;;
66626;SDS011;53498;50.422;14.912;2022-10-01T17:13:28;7.22;;;4.03;;
66626;SDS011;53498;50.422;14.912;2022-10-01T17:15:57;5.78;;;3.92;;
66626;SDS011;53498;50.422;14.912;2022-10-01T17:18:22;7.82;;;3.45;;
66626;SDS011;53498;50.422;14.912;2022-10-01T17:20:48;9.15;;;4.10;;
66626;SDS011;53498;50.422;14.912;2022-10-01T17:23:15;8.82;;;3.72;;
66626;SDS011;53498;50.422;14.912;2022-10-01T17:25:42;8.25;;;4.47;;